sensor_id;sensor_type;location;lat;lon;timestamp;pressure;altitude;pressure_sealevel;temperature;humidity
50123;BME280;36021;48.670;6.184;2023-05-02T00:01:37;99313.66;;;11.35;100.00
50123;BME280;36021;48.670;6.184;2023-05-02T00:04:03;99316.50;;;11.30;100.00
50123;BME280;36021;48.670;6.184;2023-05-02T00:06:29;99324.19;;;11.33;100.00
50123;BME280;36021;48.670;6.184;2023-05-02T00:08:56;99315.63;;;11.35;100.00
50123;BME280;36021;48.670;6.184;2023-05-02T00:11:22;99313.22;;;11.28;100.00
50123;BME280;36021;48.670;6.184;2023-05-02T00:13:48;99318.72;;;11.28;100.00
50123;BME280;36021;48.670;6.184;2023-05-02T00:16:14;99317.59;;;11.29;100.00
50123;BME280;36021;48.670;6.184;2023-05-02T00:18:39;99313.50;;;11.27;100.00
50123;BME280;36021;48.670;6.184;2023-05-02T00:21:05;99315.91;;;11.33;100.00
50123;BME280;36021;48.670;6.184;2023-05-02T00:23:31;99316.25;;;11.27;100.00
50123;BME280;36021;48.670;6.184;2023-05-02T00:25:57;99320.94;;;11.26;100.00
50123;BME280;36021;48.670;6.184;2023-05-02T00:28:24;99308.84;;;11.22;100.00
50123;BME280;36021;48.670;6.184;2023-05-02T00:30:50;99317.66;;;11.24;100.00
50123;BME280;36021;48.670;6.184;2023-05-02T00:33:16;99325.41;;;11.22;100.00
50123;BME280;36021;48.670;6.184;2023-05-02T00:35:42;99321.53;;;11.23;100.00
50123;BME280;36021;48.670;6.184;2023-05-02T00:38:09;99323.53;;;11.18;100.00
50123;BME280;36021;48.670;6.184;2023-05-02T00:40:41;99327.88;;;11.24;100.00
50123;BME280;36021;48.670;6.184;2023-05-02T00:43:09;99322.69;;;11.17;100.00
50123;BME280;36021;48.670;6.184;2023-05-02T00:45:37;99326.56;;;11.16;100.00
50123;BME280;36021;48.670;6.184;2023-05-02T00:48:06;99315.25;;;11.18;100.00
50123;BME280;36021;48.670;6.184;2023-05-02T00:50:33;99321.63;;;11.13;100.00
50123;BME280;36021;48.670;6.184;2023-05-02T00:52:59;99321.63;;;11.13;100.00
50123;BME280;36021;48.670;6.184;2023-05-02T00:55:26;99314.50;;;11.12;100.00
50123;BME280;36021;48.670;6.184;2023-05-02T00:57:52;99328.31;;;11.07;100.00
50123;BME280;36021;48.670;6.184;2023-05-02T01:00:17;99336.34;;;11.04;100.00
50123;BME280;36021;48.670;6.184;2023-05-02T01:02:57;99331.72;;;10.99;100.00
50123;BME280;36021;48.670;6.184;2023-05-02T01:05:35;99339.28;;;10.83;100.00
50123;BME280;36021;48.670;6.184;2023-05-02T01:10:37;99334.75;;;10.97;100.00
50123;BME280;36021;48.670;6.184;2023-05-02T01:13:31;99335.38;;;10.89;100.00
50123;BME280;36021;48.670;6.184;2023-05-02T01:15:54;99334.81;;;10.92;100.00
50123;BME280;36021;48.670;6.184;2023-05-02T01:18:21;99334.56;;;10.89;100.00
50123;BME280;36021;48.670;6.184;2023-05-02T01:20:47;99328.56;;;10.82;100.00
50123;BME280;36021;48.670;6.184;2023-05-02T01:23:27;99331.91;;;10.79;100.00
50123;BME280;36021;48.670;6.184;2023-05-02T01:25:59;99326.72;;;10.72;100.00
50123;BME280;36021;48.670;6.184;2023-05-02T01:28:50;99336.94;;;10.67;100.00
50123;BME280;36021;48.670;6.184;2023-05-02T01:31:17;99337.72;;;10.72;100.00
50123;BME280;36021;48.670;6.184;2023-05-02T01:33:43;99334.69;;;10.74;100.00
50123;BME280;36021;48.670;6.184;2023-05-02T01:36:12;99335.31;;;10.66;100.00
50123;BME280;36021;48.670;6.184;2023-05-02T01:38:39;99337.47;;;10.69;100.00
50123;BME280;36021;48.670;6.184;2023-05-02T01:41:06;99340.25;;;10.64;100.00
50123;BME280;36021;48.670;6.184;2023-05-02T01:43:33;99344.16;;;10.58;100.00
50123;BME280;36021;48.670;6.184;2023-05-02T01:45:59;99353.59;;;10.52;100.00
50123;BME280;36021;48.670;6.184;2023-05-02T01:48:27;99353.59;;;10.52;100.00
50123;BME280;36021;48.670;6.184;2023-05-02T01:50:54;99357.50;;;10.45;100.00
50123;BME280;36021;48.670;6.184;2023-05-02T01:53:24;99359.69;;;10.49;100.00
50123;BME280;36021;48.670;6.184;2023-05-02T01:55:49;99358.03;;;10.48;100.00
50123;BME280;36021;48.670;6.184;2023-05-02T01:58:16;99356.34;;;10.52;100.00
50123;BME280;36021;48.670;6.184;2023-05-02T02:00:43;99364.09;;;10.44;100.00
50123;BME280;36021;48.670;6.184;2023-05-02T02:03:10;99366.34;;;10.42;100.00
50123;BME280;36021;48.670;6.184;2023-05-02T02:05:37;99369.63;;;10.44;100.00
50123;BME280;36021;48.670;6.184;2023-05-02T02:08:04;99381.22;;;10.41;100.00
50123;BME280;36021;48.670;6.184;2023-05-02T02:10:30;99387.53;;;10.42;100.00
50123;BME280;36021;48.670;6.184;2023-05-02T02:13:03;99389.78;;;10.40;100.00
50123;BME280;36021;48.670;6.184;2023-05-02T02:15:33;99390.63;;;10.35;100.00
50123;BME280;36021;48.670;6.184;2023-05-02T02:18:20;99388.38;;;10.42;100.00
50123;BME280;36021;48.670;6.184;2023-05-02T02:20:46;99395.59;;;10.33;100.00
50123;BME280;36021;48.670;6.184;2023-05-02T02:23:12;99392.53;;;10.35;100.00
50123;BME280;36021;48.670;6.184;2023-05-02T02:25:39;99398.94;;;10.25;100.00
50123;BME280;36021;48.670;6.184;2023-05-02T02:28:06;99402.56;;;10.21;100.00
50123;BME280;36021;48.670;6.184;2023-05-02T02:30:31;99400.06;;;10.19;100.00
50123;BME280;36021;48.670;6.184;2023-05-02T02:32:57;99411.34;;;10.23;100.00
50123;BME280;36021;48.670;6.184;2023-05-02T02:35:22;99416.88;;;10.13;100.00
50123;BME280;36021;48.670;6.184;2023-05-02T02:38:01;99429.59;;;10.14;100.00
50123;BME280;36021;48.670;6.184;2023-05-02T02:40:40;99426.28;;;10.07;100.00
50123;BME280;36021;48.670;6.184;2023-05-02T02:43:18;99441.44;;;10.04;100.00
50123;BME280;36021;48.670;6.184;2023-05-02T02:45:52;99448.59;;;9.95;100.00
50123;BME280;36021;48.670;6.184;2023-05-02T02:48:30;99447.50;;;9.96;100.00
50123;BME280;36021;48.670;6.184;2023-05-02T02:53:25;99439.53;;;9.94;100.00
50123;BME280;36021;48.670;6.184;2023-05-02T02:58:25;99454.69;;;9.82;100.00
50123;BME280;36021;48.670;6.184;2023-05-02T03:00:55;99452.22;;;9.90;100.00
50123;BME280;36021;48.670;6.184;2023-05-02T03:03:21;99454.97;;;9.85;100.00
50123;BME280;36021;48.670;6.184;2023-05-02T03:05:54;99451.94;;;9.87;100.00
50123;BME280;36021;48.670;6.184;2023-05-02T03:08:21;99454.69;;;9.87;100.00
50123;BME280;36021;48.670;6.184;2023-05-02T03:10:47;99462.13;;;9.86;100.00
50123;BME280;36021;48.670;6.184;2023-05-02T03:13:13;99467.91;;;9.80;100.00
50123;BME280;36021;48.670;6.184;2023-05-02T03:18:24;99462.94;;;9.87;100.00
50123;BME280;36021;48.670;6.184;2023-05-02T03:20:51;99470.91;;;9.88;100.00
50123;BME280;36021;48.670;6.184;2023-05-02T03:23:17;99471.47;;;9.90;100.00
50123;BME280;36021;48.670;6.184;2023-05-02T03:25:43;99475.59;;;9.93;100.00
50123;BME280;36021;48.670;6.184;2023-05-02T03:28:11;99474.53;;;9.84;100.00
50123;BME280;36021;48.670;6.184;2023-05-02T03:30:39;99476.16;;;9.85;100.00
50123;BME280;36021;48.670;6.184;2023-05-02T03:33:06;99486.63;;;9.88;100.00
50123;BME280;36021;48.670;6.184;2023-05-02T03:35:33;99477.28;;;9.84;100.00
50123;BME280;36021;48.670;6.184;2023-05-02T03:37:59;99487.16;;;9.90;100.00
50123;BME280;36021;48.670;6.184;2023-05-02T03:40:26;99489.09;;;9.89;100.00
50123;BME280;36021;48.670;6.184;2023-05-02T03:42:52;99486.06;;;9.91;100.00
50123;BME280;36021;48.670;6.184;2023-05-02T03:45:28;99495.97;;;9.92;100.00
50123;BME280;36021;48.670;6.184;2023-05-02T03:47:54;99498.75;;;9.87;100.00
50123;BME280;36021;48.670;6.184;2023-05-02T03:50:21;99490.19;;;9.93;100.00
50123;BME280;36021;48.670;6.184;2023-05-02T03:52:49;99500.09;;;9.94;100.00
50123;BME280;36021;48.670;6.184;2023-05-02T03:55:19;99494.34;;;9.91;100.00
50123;BME280;36021;48.670;6.184;2023-05-02T03:57:46;99498.19;;;9.90;100.00
50123;BME280;36021;48.670;6.184;2023-05-02T04:00:12;99500.09;;;9.89;100.00
50123;BME280;36021;48.670;6.184;2023-05-02T04:02:38;99495.41;;;9.95;100.00
50123;BME280;36021;48.670;6.184;2023-05-02T04:05:10;99494.31;;;9.96;100.00
50123;BME280;36021;48.670;6.184;2023-05-02T04:07:37;99491.03;;;9.94;100.00
50123;BME280;36021;48.670;6.184;2023-05-02T04:10:05;99497.34;;;9.94;100.00
50123;BME280;36021;48.670;6.184;2023-05-02T04:12:36;99511.91;;;10.10;100.00
50123;BME280;36021;48.670;6.184;2023-05-02T04:15:02;99512.44;;;10.12;100.00
50123;BME280;36021;48.670;6.184;2023-05-02T04:17:29;99513.53;;;10.11;100.00
50123;BME280;36021;48.670;6.184;2023-05-02T04:19:55;99503.66;;;10.15;100.00
50123;BME280;36021;48.670;6.184;2023-05-02T04:22:24;99508.03;;;10.11;100.00
50123;BME280;36021;48.670;6.184;2023-05-02T04:24:54;99500.31;;;10.13;100.00
50123;BME280;36021;48.670;6.184;2023-05-02T04:27:22;99513.53;;;10.11;100.00
50123;BME280;36021;48.670;6.184;2023-05-02T04:29:48;99515.19;;;10.12;100.00
50123;BME280;36021;48.670;6.184;2023-05-02T04:32:15;99519.59;;;10.08;100.00
50123;BME280;36021;48.670;6.184;2023-05-02T04:34:40;99527.88;;;10.23;100.00
50123;BME280;36021;48.670;6.184;2023-05-02T04:37:07;99520.16;;;10.15;100.00
50123;BME280;36021;48.670;6.184;2023-05-02T04:39:34;99534.78;;;10.21;100.00
50123;BME280;36021;48.670;6.184;2023-05-02T04:42:03;99533.13;;;10.20;100.00
50123;BME280;36021;48.670;6.184;2023-05-02T04:44:35;99530.91;;;10.02;100.00
50123;BME280;36021;48.670;6.184;2023-05-02T04:47:01;99538.91;;;10.03;100.00
50123;BME280;36021;48.670;6.184;2023-05-02T04:49:29;99548.84;;;10.14;100.00
50123;BME280;36021;48.670;6.184;2023-05-02T04:51:55;99551.25;;;10.31;100.00
50123;BME280;36021;48.670;6.184;2023-05-02T04:54:22;99550.94;;;10.42;100.00
50123;BME280;36021;48.670;6.184;2023-05-02T04:56:48;99554.19;;;10.55;100.00
50123;BME280;36021;48.670;6.184;2023-05-02T04:59:14;99546.19;;;10.63;100.00
50123;BME280;36021;48.670;6.184;2023-05-02T05:01:41;99537.84;;;10.73;100.00
50123;BME280;36021;48.670;6.184;2023-05-02T05:04:08;99535.16;;;10.58;100.00
50123;BME280;36021;48.670;6.184;2023-05-02T05:06:33;99536.59;;;10.45;100.00
50123;BME280;36021;48.670;6.184;2023-05-02T05:08:59;99536.56;;;10.51;100.00
50123;BME280;36021;48.670;6.184;2023-05-02T05:11:24;99543.78;;;10.47;100.00
50123;BME280;36021;48.670;6.184;2023-05-02T05:13:51;99535.47;;;10.52;100.00
50123;BME280;36021;48.670;6.184;2023-05-02T05:16:17;99536.31;;;10.52;100.00
50123;BME280;36021;48.670;6.184;2023-05-02T05:18:44;99539.31;;;10.51;100.00
50123;BME280;36021;48.670;6.184;2023-05-02T05:21:12;99534.66;;;10.51;100.00
50123;BME280;36021;48.670;6.184;2023-05-02T05:23:38;99538.22;;;10.52;100.00
50123;BME280;36021;48.670;6.184;2023-05-02T05:28:34;99538.78;;;10.49;100.00
50123;BME280;36021;48.670;6.184;2023-05-02T05:31:04;99544.34;;;10.43;100.00
50123;BME280;36021;48.670;6.184;2023-05-02T05:33:30;99555.06;;;10.45;100.00
50123;BME280;36021;48.670;6.184;2023-05-02T05:36:07;99559.44;;;10.56;100.00
50123;BME280;36021;48.670;6.184;2023-05-02T05:38:34;99565.78;;;10.57;100.00
50123;BME280;36021;48.670;6.184;2023-05-02T05:41:01;99576.28;;;10.50;100.00
50123;BME280;36021;48.670;6.184;2023-05-02T05:43:27;99580.63;;;10.66;100.00
50123;BME280;36021;48.670;6.184;2023-05-02T05:45:55;99585.00;;;10.67;100.00
50123;BME280;36021;48.670;6.184;2023-05-02T05:48:21;99574.28;;;10.65;100.00
50123;BME280;36021;48.670;6.184;2023-05-02T05:50:47;99573.69;;;10.78;100.00
50123;BME280;36021;48.670;6.184;2023-05-02T05:53:12;99583.03;;;10.77;100.00
50123;BME280;36021;48.670;6.184;2023-05-02T05:55:39;99584.41;;;10.80;100.00
50123;BME280;36021;48.670;6.184;2023-05-02T05:58:06;99582.69;;;10.94;100.00
50123;BME280;36021;48.670;6.184;2023-05-02T06:00:36;99582.66;;;11.04;100.00
50123;BME280;36021;48.670;6.184;2023-05-02T06:03:01;99587.28;;;11.14;100.00
50123;BME280;36021;48.670;6.184;2023-05-02T06:05:32;99585.34;;;11.14;100.00
50123;BME280;36021;48.670;6.184;2023-05-02T06:07:58;99594.97;;;11.22;100.00
50123;BME280;36021;48.670;6.184;2023-05-02T06:10:25;99596.28;;;11.34;100.00
50123;BME280;36021;48.670;6.184;2023-05-02T06:12:51;99591.22;;;11.46;100.00
50123;BME280;36021;48.670;6.184;2023-05-02T06:15:20;99588.44;;;11.52;100.00
50123;BME280;36021;48.670;6.184;2023-05-02T06:17:46;99596.88;;;11.65;100.00
50123;BME280;36021;48.670;6.184;2023-05-02T06:20:11;99597.69;;;11.71;100.00
50123;BME280;36021;48.670;6.184;2023-05-02T06:22:37;99603.94;;;11.81;100.00
50123;BME280;36021;48.670;6.184;2023-05-02T06:25:04;99602.00;;;11.87;100.00
50123;BME280;36021;48.670;6.184;2023-05-02T06:27:32;99610.53;;;11.90;100.00
50123;BME280;36021;48.670;6.184;2023-05-02T06:29:58;99616.28;;;11.94;100.00
50123;BME280;36021;48.670;6.184;2023-05-02T06:32:24;99623.94;;;12.02;100.00
50123;BME280;36021;48.670;6.184;2023-05-02T06:34:49;99624.44;;;12.09;100.00
50123;BME280;36021;48.670;6.184;2023-05-02T06:37:15;99629.38;;;12.12;100.00
50123;BME280;36021;48.670;6.184;2023-05-02T06:39:42;99628.44;;;12.27;100.00
50123;BME280;36021;48.670;6.184;2023-05-02T06:42:08;99632.78;;;12.33;100.00
50123;BME280;36021;48.670;6.184;2023-05-02T06:44:36;99635.50;;;12.38;100.00
50123;BME280;36021;48.670;6.184;2023-05-02T06:47:03;99630.69;;;12.48;100.00
50123;BME280;36021;48.670;6.184;2023-05-02T06:49:30;99630.88;;;12.57;100.00
50123;BME280;36021;48.670;6.184;2023-05-02T06:51:56;99629.28;;;12.75;100.00
50123;BME280;36021;48.670;6.184;2023-05-02T06:54:21;99631.13;;;12.84;100.00
50123;BME280;36021;48.670;6.184;2023-05-02T06:56:47;99633.53;;;12.91;100.00
50123;BME280;36021;48.670;6.184;2023-05-02T06:59:13;99631.47;;;13.01;100.00
50123;BME280;36021;48.670;6.184;2023-05-02T07:01:42;99629.53;;;13.02;100.00
50123;BME280;36021;48.670;6.184;2023-05-02T07:04:07;99630.69;;;12.96;100.00
50123;BME280;36021;48.670;6.184;2023-05-02T07:06:34;99628.97;;;13.00;100.00
50123;BME280;36021;48.670;6.184;2023-05-02T07:09:00;99623.31;;;13.15;100.00
50123;BME280;36021;48.670;6.184;2023-05-02T07:11:26;99626.28;;;13.19;100.00
50123;BME280;36021;48.670;6.184;2023-05-02T07:13:52;99624.28;;;13.24;100.00
50123;BME280;36021;48.670;6.184;2023-05-02T07:16:17;99629.91;;;13.38;100.00
50123;BME280;36021;48.670;6.184;2023-05-02T07:18:43;99623.16;;;13.44;100.00
50123;BME280;36021;48.670;6.184;2023-05-02T07:21:10;99626.97;;;13.29;100.00
50123;BME280;36021;48.670;6.184;2023-05-02T07:23:35;99626.50;;;13.22;100.00
50123;BME280;36021;48.670;6.184;2023-05-02T07:26:01;99622.63;;;13.42;100.00
50123;BME280;36021;48.670;6.184;2023-05-02T07:28:29;99628.25;;;13.55;100.00
50123;BME280;36021;48.670;6.184;2023-05-02T07:30:55;99636.78;;;13.78;100.00
50123;BME280;36021;48.670;6.184;2023-05-02T07:33:20;99634.16;;;13.86;100.00
50123;BME280;36021;48.670;6.184;2023-05-02T07:35:46;99629.47;;;14.00;100.00
50123;BME280;36021;48.670;6.184;2023-05-02T07:38:13;99630.69;;;13.94;100.00
50123;BME280;36021;48.670;6.184;2023-05-02T07:40:39;99636.22;;;13.94;100.00
50123;BME280;36021;48.670;6.184;2023-05-02T07:43:06;99639.31;;;13.93;100.00
50123;BME280;36021;48.670;6.184;2023-05-02T07:45:31;99633.09;;;13.82;100.00
50123;BME280;36021;48.670;6.184;2023-05-02T07:47:58;99643.47;;;14.09;100.00
50123;BME280;36021;48.670;6.184;2023-05-02T07:50:23;99645.47;;;14.22;100.00
50123;BME280;36021;48.670;6.184;2023-05-02T07:52:49;99640.06;;;14.31;100.00
50123;BME280;36021;48.670;6.184;2023-05-02T07:55:14;99644.00;;;14.11;100.00
50123;BME280;36021;48.670;6.184;2023-05-02T07:57:40;99635.34;;;14.31;100.00
50123;BME280;36021;48.670;6.184;2023-05-02T08:00:07;99642.94;;;14.07;100.00
50123;BME280;36021;48.670;6.184;2023-05-02T08:02:43;99647.31;;;14.13;100.00
50123;BME280;36021;48.670;6.184;2023-05-02T08:05:09;99653.06;;;13.98;100.00
50123;BME280;36021;48.670;6.184;2023-05-02T08:07:35;99651.69;;;14.14;100.00
50123;BME280;36021;48.670;6.184;2023-05-02T08:10:00;99640.66;;;14.28;100.00
50123;BME280;36021;48.670;6.184;2023-05-02T08:12:26;99646.81;;;14.25;100.00
50123;BME280;36021;48.670;6.184;2023-05-02T08:14:51;99648.50;;;14.07;100.00
50123;BME280;36021;48.670;6.184;2023-05-02T08:17:17;99653.56;;;14.19;100.00
50123;BME280;36021;48.670;6.184;2023-05-02T08:19:42;99650.31;;;14.30;100.00
50123;BME280;36021;48.670;6.184;2023-05-02T08:22:08;99651.63;;;14.19;100.00
50123;BME280;36021;48.670;6.184;2023-05-02T08:24:34;99652.06;;;14.26;100.00
50123;BME280;36021;48.670;6.184;2023-05-02T08:27:01;99653.63;;;14.32;100.00
50123;BME280;36021;48.670;6.184;2023-05-02T08:29:28;99653.41;;;14.29;100.00
50123;BME280;36021;48.670;6.184;2023-05-02T08:31:54;99650.09;;;14.45;100.00
50123;BME280;36021;48.670;6.184;2023-05-02T08:34:19;99651.84;;;14.55;100.00
50123;BME280;36021;48.670;6.184;2023-05-02T08:36:46;99652.19;;;14.67;100.00
50123;BME280;36021;48.670;6.184;2023-05-02T08:39:11;99653.75;;;14.87;100.00
50123;BME280;36021;48.670;6.184;2023-05-02T08:41:38;99658.97;;;15.02;100.00
50123;BME280;36021;48.670;6.184;2023-05-02T08:44:04;99662.16;;;15.09;100.00
50123;BME280;36021;48.670;6.184;2023-05-02T08:46:34;99661.75;;;15.16;100.00
50123;BME280;36021;48.670;6.184;2023-05-02T08:49:00;99663.63;;;15.20;100.00
50123;BME280;36021;48.670;6.184;2023-05-02T08:51:26;99661.75;;;15.29;100.00
50123;BME280;36021;48.670;6.184;2023-05-02T08:53:53;99671.03;;;15.25;100.00
50123;BME280;36021;48.670;6.184;2023-05-02T08:56:19;99669.16;;;15.20;100.00
50123;BME280;36021;48.670;6.184;2023-05-02T08:58:45;99665.84;;;15.32;100.00
50123;BME280;36021;48.670;6.184;2023-05-02T09:01:12;99671.13;;;15.33;100.00
50123;BME280;36021;48.670;6.184;2023-05-02T09:03:39;99672.22;;;15.32;100.00
50123;BME280;36021;48.670;6.184;2023-05-02T09:06:14;99672.84;;;15.16;100.00
50123;BME280;36021;48.670;6.184;2023-05-02T09:08:40;99671.44;;;15.18;100.00
50123;BME280;36021;48.670;6.184;2023-05-02T09:11:07;99675.91;;;15.41;100.00
50123;BME280;36021;48.670;6.184;2023-05-02T09:16:11;99675.28;;;15.72;100.00
50123;BME280;36021;48.670;6.184;2023-05-02T09:18:41;99679.50;;;15.83;100.00
50123;BME280;36021;48.670;6.184;2023-05-02T09:21:11;99686.72;;;16.06;100.00
50123;BME280;36021;48.670;6.184;2023-05-02T09:23:47;99680.38;;;15.92;100.00
50123;BME280;36021;48.670;6.184;2023-05-02T09:26:17;99692.28;;;15.43;100.00
50123;BME280;36021;48.670;6.184;2023-05-02T09:28:44;99687.06;;;15.55;100.00
50123;BME280;36021;48.670;6.184;2023-05-02T09:31:11;99703.94;;;15.58;100.00
50123;BME280;36021;48.670;6.184;2023-05-02T09:33:37;99702.19;;;15.62;100.00
50123;BME280;36021;48.670;6.184;2023-05-02T09:36:04;99706.28;;;15.65;100.00
50123;BME280;36021;48.670;6.184;2023-05-02T09:38:29;99706.69;;;15.45;100.00
50123;BME280;36021;48.670;6.184;2023-05-02T09:40:55;99713.38;;;15.57;100.00
50123;BME280;36021;48.670;6.184;2023-05-02T09:43:21;99711.34;;;15.49;100.00
50123;BME280;36021;48.670;6.184;2023-05-02T09:45:56;99718.13;;;15.43;100.00
50123;BME280;36021;48.670;6.184;2023-05-02T09:48:22;99718.56;;;15.50;100.00
50123;BME280;36021;48.670;6.184;2023-05-02T09:50:48;99724.72;;;15.47;100.00
50123;BME280;36021;48.670;6.184;2023-05-02T09:53:14;99728.81;;;15.36;100.00
50123;BME280;36021;48.670;6.184;2023-05-02T09:55:40;99719.38;;;15.37;100.00
50123;BME280;36021;48.670;6.184;2023-05-02T09:58:18;99727.19;;;15.62;100.00
50123;BME280;36021;48.670;6.184;2023-05-02T10:00:46;99723.75;;;15.38;100.00
50123;BME280;36021;48.670;6.184;2023-05-02T10:03:14;99725.13;;;15.27;100.00
50123;BME280;36021;48.670;6.184;2023-05-02T10:05:40;99736.84;;;15.24;100.00
50123;BME280;36021;48.670;6.184;2023-05-02T10:08:08;99735.69;;;15.25;100.00
50123;BME280;36021;48.670;6.184;2023-05-02T10:10:35;99734.56;;;15.26;100.00
50123;BME280;36021;48.670;6.184;2023-05-02T10:13:02;99742.91;;;15.26;100.00
50123;BME280;36021;48.670;6.184;2023-05-02T10:15:28;99733.13;;;15.42;100.00
50123;BME280;36021;48.670;6.184;2023-05-02T10:17:54;99746.53;;;15.40;100.00
50123;BME280;36021;48.670;6.184;2023-05-02T10:20:22;99736.31;;;15.08;100.00
50123;BME280;36021;48.670;6.184;2023-05-02T10:22:50;99738.88;;;14.91;100.00
50123;BME280;36021;48.670;6.184;2023-05-02T10:25:17;99748.75;;;14.97;100.00
50123;BME280;36021;48.670;6.184;2023-05-02T10:27:45;99747.53;;;15.17;100.00
50123;BME280;36021;48.670;6.184;2023-05-02T10:30:11;99745.47;;;15.09;100.00
50123;BME280;36021;48.670;6.184;2023-05-02T10:32:37;99742.78;;;15.45;100.00
50123;BME280;36021;48.670;6.184;2023-05-02T10:35:03;99742.81;;;15.58;100.00
50123;BME280;36021;48.670;6.184;2023-05-02T10:37:30;99741.78;;;15.68;100.00
50123;BME280;36021;48.670;6.184;2023-05-02T10:39:58;99734.06;;;15.79;100.00
50123;BME280;36021;48.670;6.184;2023-05-02T10:42:25;99731.94;;;15.98;100.00
50123;BME280;36021;48.670;6.184;2023-05-02T10:44:52;99734.72;;;15.98;100.00
50123;BME280;36021;48.670;6.184;2023-05-02T10:49:55;99737.63;;;16.29;100.00
50123;BME280;36021;48.670;6.184;2023-05-02T10:52:25;99739.22;;;16.07;100.00
50123;BME280;36021;48.670;6.184;2023-05-02T10:54:52;99740.84;;;15.86;100.00
50123;BME280;36021;48.670;6.184;2023-05-02T11:00:24;99746.03;;;16.15;100.00
50123;BME280;36021;48.670;6.184;2023-05-02T11:02:50;99743.00;;;16.25;100.00
50123;BME280;36021;48.670;6.184;2023-05-02T11:05:16;99740.81;;;16.00;100.00
50123;BME280;36021;48.670;6.184;2023-05-02T11:07:44;99735.31;;;16.08;100.00
50123;BME280;36021;48.670;6.184;2023-05-02T11:12:51;99736.84;;;16.14;100.00
50123;BME280;36021;48.670;6.184;2023-05-02T11:18:01;99742.22;;;16.11;100.00
50123;BME280;36021;48.670;6.184;2023-05-02T11:20:27;99739.84;;;16.62;100.00
50123;BME280;36021;48.670;6.184;2023-05-02T11:22:54;99736.81;;;16.73;100.00
50123;BME280;36021;48.670;6.184;2023-05-02T11:25:31;99736.88;;;17.12;100.00
50123;BME280;36021;48.670;6.184;2023-05-02T11:27:57;99733.91;;;17.48;100.00
50123;BME280;36021;48.670;6.184;2023-05-02T11:30:35;99725.81;;;17.68;100.00
50123;BME280;36021;48.670;6.184;2023-05-02T11:35:30;99726.28;;;17.70;100.00
50123;BME280;36021;48.670;6.184;2023-05-02T11:37:56;99729.97;;;18.14;100.00
50123;BME280;36021;48.670;6.184;2023-05-02T11:40:24;99722.25;;;18.11;100.00
50123;BME280;36021;48.670;6.184;2023-05-02T11:42:49;99725.38;;;18.18;100.00
50123;BME280;36021;48.670;6.184;2023-05-02T11:45:16;99725.69;;;18.08;100.00
50123;BME280;36021;48.670;6.184;2023-05-02T11:47:43;99721.59;;;18.22;100.00
50123;BME280;36021;48.670;6.184;2023-05-02T11:50:10;99723.41;;;18.27;100.00
50123;BME280;36021;48.670;6.184;2023-05-02T11:52:36;99723.56;;;18.39;100.00
50123;BME280;36021;48.670;6.184;2023-05-02T11:55:04;99713.88;;;18.62;100.00
50123;BME280;36021;48.670;6.184;2023-05-02T11:57:34;99716.84;;;18.66;100.00
50123;BME280;36021;48.670;6.184;2023-05-02T12:00:01;99713.72;;;18.59;100.00
50123;BME280;36021;48.670;6.184;2023-05-02T12:02:44;99703.56;;;19.09;100.00
50123;BME280;36021;48.670;6.184;2023-05-02T12:05:10;99702.59;;;19.52;100.00
50123;BME280;36021;48.670;6.184;2023-05-02T12:07:40;99708.63;;;19.62;100.00
50123;BME280;36021;48.670;6.184;2023-05-02T12:10:06;99709.84;;;19.73;100.00
50123;BME280;36021;48.670;6.184;2023-05-02T12:12:32;99709.38;;;19.42;100.00
50123;BME280;36021;48.670;6.184;2023-05-02T12:15:00;99704.66;;;19.63;100.00
50123;BME280;36021;48.670;6.184;2023-05-02T12:17:27;99710.47;;;20.29;100.00
50123;BME280;36021;48.670;6.184;2023-05-02T12:19:53;99705.88;;;20.45;100.00
50123;BME280;36021;48.670;6.184;2023-05-02T12:24:45;99698.69;;;20.56;100.00
50123;BME280;36021;48.670;6.184;2023-05-02T12:27:14;99704.84;;;20.83;100.00
50123;BME280;36021;48.670;6.184;2023-05-02T12:29:40;99710.34;;;20.91;100.00
50123;BME280;36021;48.670;6.184;2023-05-02T12:32:05;99703.53;;;21.73;100.00
50123;BME280;36021;48.670;6.184;2023-05-02T12:34:32;99704.44;;;22.14;100.00
50123;BME280;36021;48.670;6.184;2023-05-02T12:36:58;99699.50;;;23.06;100.00
50123;BME280;36021;48.670;6.184;2023-05-02T12:39:40;99699.84;;;23.20;100.00
50123;BME280;36021;48.670;6.184;2023-05-02T12:42:07;99687.47;;;24.80;91.31
50123;BME280;36021;48.670;6.184;2023-05-02T12:44:35;99691.88;;;26.51;68.07
50123;BME280;36021;48.670;6.184;2023-05-02T12:47:01;99696.91;;;26.64;67.11
50123;BME280;36021;48.670;6.184;2023-05-02T12:49:26;99688.13;;;28.77;49.48
50123;BME280;36021;48.670;6.184;2023-05-02T12:51:52;99693.88;;;30.29;43.39
50123;BME280;36021;48.670;6.184;2023-05-02T12:54:21;99698.44;;;29.70;45.30
50123;BME280;36021;48.670;6.184;2023-05-02T12:56:46;99703.72;;;30.07;47.08
50123;BME280;36021;48.670;6.184;2023-05-02T12:59:24;99703.41;;;30.91;43.17
50123;BME280;36021;48.670;6.184;2023-05-02T13:01:50;99700.19;;;31.48;40.67
50123;BME280;36021;48.670;6.184;2023-05-02T13:04:16;99701.13;;;31.38;42.43
50123;BME280;36021;48.670;6.184;2023-05-02T13:06:42;99688.31;;;33.10;36.97
50123;BME280;36021;48.670;6.184;2023-05-02T13:09:07;99697.19;;;32.51;36.49
50123;BME280;36021;48.670;6.184;2023-05-02T13:11:33;99692.38;;;31.63;38.14
50123;BME280;36021;48.670;6.184;2023-05-02T13:13:58;99687.34;;;32.59;35.65
50123;BME280;36021;48.670;6.184;2023-05-02T13:16:25;99693.88;;;32.22;36.48
50123;BME280;36021;48.670;6.184;2023-05-02T13:18:51;99682.91;;;33.15;34.63
50123;BME280;36021;48.670;6.184;2023-05-02T13:21:17;99682.78;;;34.81;31.80
50123;BME280;36021;48.670;6.184;2023-05-02T13:23:45;99680.28;;;33.51;33.24
50123;BME280;36021;48.670;6.184;2023-05-02T13:26:11;99683.75;;;33.66;32.38